This is the latest recevied weather packets stored in our database for station/object DL2DHM-13. If no packets are shown the sender has not sent any weather packets the latest 10 day(s).
| Time | Temp. | Humidity | Pressure | Rain* | Wind** | Luminosity | Snow |
|---|---|---|---|---|---|---|---|
| 1777372850 | 15° C | 48% | 1022.8 hPa | 0 mm | - | 784 W/m² | - |
| 1777372259 | 15° C | 48% | 1022.8 hPa | 0 mm | - | 735 W/m² | - |
| 1777369553 | 13.89° C | 51% | 1022.8 hPa | 0 mm | - | 468 W/m² | - |
| 1777366528 | 12.78° C | 55% | 1022.9 hPa | 0 mm | - | 526 W/m² | - |
| 1777365023 | 12.22° C | 56% | 1022.7 hPa | 0 mm | - | 413 W/m² | - |
| 1777361712 | 11.67° C | 60% | 1022.4 hPa | 0 mm | - | 313 W/m² | - |
| 1777360811 | 11.11° C | 62% | 1022.3 hPa | 0 mm | - | 345 W/m² | - |
| 1777359603 | 10.56° C | 65% | 1022.3 hPa | 0 mm | - | 313 W/m² | - |
| 1777358160 | 10° C | 66% | 1022.1 hPa | 0 mm | - | 272 W/m² | - |
| 1777357555 | 9.44° C | 69% | 1022.1 hPa | 0 mm | - | 290 W/m² | - |
| 1777357254 | 8.89° C | 70% | 1022 hPa | 0 mm | - | 276 W/m² | - |
| 1777356049 | 7.78° C | 75% | 1021.9 hPa | 0 mm | - | 137 W/m² | - |
| 1777355749 | 7.22° C | 76% | 1021.8 hPa | 0 mm | - | 120 W/m² | - |
| 1777354245 | 6.67° C | 77% | 1021.7 hPa | 0 mm | - | 63 W/m² | - |
| 1777351838 | 6.11° C | 78% | 1021.4 hPa | 0 mm | - | 28 W/m² | - |
| 1777349741 | 6.11° C | 77% | 1021.2 hPa | 0 mm | - | 9 W/m² | - |
| 1777349132 | 6.11° C | 77% | 1021.1 hPa | 0 mm | - | 0 W/m² | - |
| 1777347632 | 6.67° C | 76% | 1021.2 hPa | 0 mm | - | 0 W/m² | - |
| 1777346727 | 6.11° C | 76% | 1021.3 hPa | 0 mm | - | 0 W/m² | - |
| 1777342821 | 6.67° C | 74% | 1021.5 hPa | 0 mm | - | 0 W/m² | - |
| 1777342518 | 6.67° C | 74% | 1021.4 hPa | 0 mm | - | 0 W/m² | - |
| 1777340714 | 6.67° C | 74% | 1021.2 hPa | 0 mm | - | 0 W/m² | - |
| 1777340415 | 6.67° C | 74% | 1021.3 hPa | 0 mm | - | 0 W/m² | - |
| 1777335908 | 7.22° C | 70% | 1021.2 hPa | 0 mm | - | 0 W/m² | - |
| 1777331161 | 7.22° C | 68% | 1020.9 hPa | 0 mm | - | 0 W/m² | - |
* Rain latest hour (hover to see other rain measurements)
** Current wind speed in m/s (hover to see current wind gust speed)